createdAt,value
2023-01-21T00:00:11.105Z,31.23
2023-01-21T00:02:37.941Z,31.08
2023-01-21T00:05:05.033Z,32.50
2023-01-21T00:07:31.698Z,29.40
2023-01-21T00:09:58.613Z,28.23
2023-01-21T00:12:25.404Z,27.65
2023-01-21T00:14:52.138Z,27.23
2023-01-21T00:17:18.839Z,26.02
2023-01-21T00:19:45.533Z,22.08
2023-01-21T00:22:12.387Z,26.95
2023-01-21T00:24:39.156Z,27.92
2023-01-21T00:27:05.951Z,27.60
2023-01-21T00:29:32.710Z,25.00
2023-01-21T00:31:59.524Z,27.17
2023-01-21T00:34:26.230Z,26.20
2023-01-21T00:36:55.096Z,26.80
2023-01-21T00:39:23.081Z,23.98
2023-01-21T00:41:50.902Z,25.95
2023-01-21T00:44:19.291Z,25.90
2023-01-21T00:46:46.274Z,25.00
2023-01-21T00:49:13.077Z,25.38
2023-01-21T00:51:39.833Z,23.65
2023-01-21T00:54:06.567Z,21.70
2023-01-21T00:56:33.363Z,21.45
2023-01-21T00:59:00.272Z,21.15
2023-01-21T01:01:28.085Z,23.27
2023-01-21T01:03:54.927Z,22.40
2023-01-21T01:06:23.403Z,26.75
2023-01-21T01:08:50.910Z,22.48
2023-01-21T01:11:18.506Z,20.85
2023-01-21T01:13:45.471Z,21.20
2023-01-21T01:16:14.492Z,21.60
2023-01-21T01:18:41.366Z,22.05
2023-01-21T01:21:15.242Z,20.42
2023-01-21T01:23:42.507Z,18.48
2023-01-21T01:26:12.976Z,21.33
2023-01-21T01:28:39.912Z,17.98
2023-01-21T01:31:09.064Z,21.55
2023-01-21T01:33:36.175Z,20.90
2023-01-21T01:36:05.049Z,18.90
2023-01-21T01:38:32.120Z,18.48
2023-01-21T01:40:59.235Z,21.55
2023-01-21T01:43:47.639Z,20.00
2023-01-21T01:46:14.987Z,18.85
2023-01-21T01:48:44.641Z,21.23
2023-01-21T01:51:13.636Z,18.42
2023-01-21T01:53:42.959Z,18.90
2023-01-21T01:56:09.910Z,19.85
2023-01-21T01:58:37.900Z,20.30
2023-01-21T02:01:04.756Z,18.20
2023-01-21T02:03:46.057Z,17.92
2023-01-21T02:06:17.840Z,19.20
2023-01-21T02:08:47.427Z,18.63
2023-01-21T02:11:19.115Z,21.10
2023-01-21T02:13:57.734Z,18.33
2023-01-21T02:16:59.433Z,17.75
2023-01-21T02:19:26.072Z,18.73
2023-01-21T02:22:03.789Z,18.45
2023-01-21T02:24:50.012Z,17.70
2023-01-21T02:27:30.706Z,19.52
2023-01-21T02:30:22.286Z,20.13
2023-01-21T02:33:07.076Z,19.35
2023-01-21T02:36:25.818Z,17.38
2023-01-21T02:39:13.101Z,19.88
2023-01-21T02:41:39.750Z,19.08
2023-01-21T02:44:24.972Z,16.02
2023-01-21T02:47:16.756Z,19.05
2023-01-21T02:49:58.450Z,18.55
2023-01-21T02:52:26.267Z,18.92
2023-01-21T02:55:00.044Z,18.67
2023-01-21T02:57:34.170Z,22.63
2023-01-21T03:00:04.357Z,19.90
2023-01-21T03:02:44.072Z,16.45
2023-01-21T03:05:28.950Z,18.27
2023-01-21T03:08:11.455Z,20.13
2023-01-21T03:10:50.514Z,22.63
2023-01-21T03:14:00.631Z,19.15
2023-01-21T03:16:51.349Z,18.40
2023-01-21T03:19:21.750Z,19.55
2023-01-21T03:21:51.114Z,19.48
2023-01-21T03:24:19.322Z,16.10
2023-01-21T03:26:49.664Z,22.15
2023-01-21T03:29:22.113Z,21.45
2023-01-21T03:31:53.763Z,20.35
2023-01-21T03:34:22.687Z,22.92
2023-01-21T03:36:55.413Z,22.00
2023-01-21T03:39:46.809Z,20.00
2023-01-21T03:42:14.579Z,21.95
2023-01-21T03:44:42.132Z,18.90
2023-01-21T03:47:08.747Z,21.63
2023-01-21T03:49:39.415Z,17.02
2023-01-21T03:52:08.873Z,18.95
2023-01-21T03:54:38.510Z,19.30
2023-01-21T03:57:05.652Z,18.35
2023-01-21T03:59:33.161Z,18.90
2023-01-21T04:01:59.839Z,21.80
2023-01-21T04:04:26.540Z,19.05
2023-01-21T04:06:53.238Z,19.60
2023-01-21T04:09:20.052Z,16.90
2023-01-21T04:11:46.786Z,18.52
2023-01-21T04:14:13.564Z,19.02
2023-01-21T04:16:40.273Z,20.02
2023-01-21T04:19:07.091Z,18.73
2023-01-21T04:21:33.788Z,19.98
2023-01-21T04:24:00.566Z,19.67
2023-01-21T04:26:27.242Z,20.38
2023-01-21T04:28:53.955Z,21.67
2023-01-21T04:31:20.740Z,18.98
2023-01-21T04:33:47.460Z,21.38
2023-01-21T04:36:14.207Z,18.13
2023-01-21T04:38:41.135Z,18.55
2023-01-21T04:41:07.838Z,21.60
2023-01-21T04:43:34.599Z,20.27
2023-01-21T04:46:01.482Z,18.63
2023-01-21T04:48:28.282Z,20.45
2023-01-21T04:50:55.024Z,17.80
2023-01-21T04:53:21.762Z,20.08
2023-01-21T04:55:50.972Z,19.42
2023-01-21T04:58:17.964Z,19.55
2023-01-21T05:00:44.717Z,17.83
2023-01-21T05:03:11.422Z,16.20
2023-01-21T05:05:38.276Z,21.70
2023-01-21T05:08:05.181Z,17.38
2023-01-21T05:10:31.944Z,18.35
2023-01-21T05:12:59.512Z,18.42
2023-01-21T05:15:30.171Z,19.40
2023-01-21T05:17:56.921Z,17.92
2023-01-21T05:20:23.738Z,19.13
2023-01-21T05:22:50.518Z,17.17
2023-01-21T05:25:17.316Z,18.20
2023-01-21T05:27:43.982Z,19.00
2023-01-21T05:30:11.204Z,17.20
2023-01-21T05:32:37.954Z,18.10
2023-01-21T05:35:05.453Z,16.27
2023-01-21T05:37:32.267Z,16.67
2023-01-21T05:39:59.025Z,14.02
2023-01-21T05:42:25.914Z,15.43
2023-01-21T05:44:52.786Z,17.55
2023-01-21T05:47:19.497Z,14.88
2023-01-21T05:49:46.162Z,15.18
2023-01-21T05:52:13.222Z,15.80
2023-01-21T05:54:52.459Z,15.75
2023-01-21T05:57:22.855Z,14.93
2023-01-21T05:59:49.640Z,15.27
2023-01-21T06:02:16.427Z,14.63
2023-01-21T06:04:43.140Z,15.68
2023-01-21T06:07:09.837Z,14.80
2023-01-21T06:09:36.532Z,15.43
2023-01-21T06:12:03.246Z,14.55
2023-01-21T06:14:30.013Z,13.32
2023-01-21T06:16:56.691Z,15.43
2023-01-21T06:19:23.456Z,15.98
2023-01-21T06:21:51.895Z,15.60
2023-01-21T06:24:18.642Z,17.95
2023-01-21T06:26:45.469Z,16.27
2023-01-21T06:29:12.197Z,14.02
2023-01-21T06:31:39.619Z,13.35
2023-01-21T06:34:06.580Z,18.55
2023-01-21T06:36:33.244Z,15.50
2023-01-21T06:38:59.918Z,14.07
2023-01-21T06:41:26.685Z,13.43
2023-01-21T06:43:53.381Z,15.18
2023-01-21T06:46:20.191Z,12.82
2023-01-21T06:48:47.078Z,11.15
2023-01-21T06:51:13.812Z,15.48
2023-01-21T06:53:41.281Z,14.43
2023-01-21T06:56:08.194Z,12.15
2023-01-21T06:58:34.910Z,14.38
2023-01-21T07:01:01.678Z,12.85
2023-01-21T07:03:29.391Z,14.73
2023-01-21T07:05:56.074Z,14.70
2023-01-21T07:08:22.816Z,16.15
2023-01-21T07:10:49.588Z,14.40
2023-01-21T07:13:16.347Z,16.77
2023-01-21T07:15:43.135Z,14.63
2023-01-21T07:18:09.894Z,12.20
2023-01-21T07:20:37.687Z,12.57
2023-01-21T07:23:05.072Z,14.52
2023-01-21T07:25:32.503Z,13.10
2023-01-21T07:27:59.576Z,17.33
2023-01-21T07:30:26.428Z,13.07
2023-01-21T07:32:53.220Z,13.85
2023-01-21T07:35:20.272Z,12.20
2023-01-21T07:37:47.091Z,13.45
2023-01-21T07:40:14.016Z,12.85
2023-01-21T07:42:40.740Z,13.30
2023-01-21T07:45:07.902Z,12.82
2023-01-21T07:47:34.668Z,13.57
2023-01-21T07:50:05.065Z,14.68
2023-01-21T07:52:32.772Z,12.45
2023-01-21T07:54:59.456Z,14.18
2023-01-21T07:57:26.266Z,13.10
2023-01-21T07:59:53.096Z,13.57
2023-01-21T08:02:19.880Z,13.98
2023-01-21T08:04:46.690Z,14.95
2023-01-21T08:07:13.421Z,11.35
2023-01-21T08:09:40.791Z,12.13
2023-01-21T08:12:08.537Z,11.70
2023-01-21T08:14:35.398Z,11.90
2023-01-21T08:17:02.419Z,10.82
2023-01-21T08:19:29.207Z,14.43
2023-01-21T08:21:55.980Z,13.15
2023-01-21T08:24:22.795Z,13.07
2023-01-21T08:26:49.499Z,14.82
2023-01-21T08:29:16.420Z,12.30
2023-01-21T08:31:43.229Z,13.15
2023-01-21T08:34:12.707Z,11.23
2023-01-21T08:36:39.862Z,12.45
2023-01-21T08:39:06.583Z,14.07
2023-01-21T08:41:33.960Z,10.95
2023-01-21T08:44:00.801Z,11.50
2023-01-21T08:46:27.726Z,9.85
2023-01-21T08:48:54.547Z,11.85
2023-01-21T08:51:21.325Z,11.90
2023-01-21T08:53:50.109Z,17.25
2023-01-21T08:56:17.427Z,12.65
2023-01-21T08:58:44.819Z,10.15
2023-01-21T09:01:13.817Z,12.35
2023-01-21T09:03:40.779Z,12.45
2023-01-21T09:06:08.508Z,13.80
2023-01-21T09:08:36.580Z,11.02
2023-01-21T09:11:06.957Z,12.27
2023-01-21T09:13:37.466Z,12.25
2023-01-21T09:16:09.811Z,14.07
2023-01-21T09:18:37.692Z,12.70
2023-01-21T09:21:05.996Z,11.40
2023-01-21T09:23:34.769Z,11.63
2023-01-21T09:26:03.715Z,12.70
2023-01-21T09:28:32.005Z,11.98
2023-01-21T09:31:00.816Z,12.07
2023-01-21T09:33:32.244Z,12.63
2023-01-21T09:36:01.340Z,10.85
2023-01-21T09:38:29.109Z,12.73
2023-01-21T09:41:18.639Z,11.27
2023-01-21T09:43:51.358Z,10.23
2023-01-21T09:46:43.250Z,10.80
2023-01-21T09:49:17.619Z,11.98
2023-01-21T09:51:52.506Z,11.05
2023-01-21T09:54:31.341Z,11.20
2023-01-21T09:57:09.710Z,10.82
2023-01-21T09:59:50.379Z,13.35
2023-01-21T10:02:53.455Z,9.32
2023-01-21T10:05:35.585Z,14.70
2023-01-21T10:08:32.562Z,10.35
2023-01-21T10:11:22.183Z,10.35
2023-01-21T10:14:22.855Z,10.88
2023-01-21T10:17:07.319Z,10.25
2023-01-21T10:19:40.348Z,10.85
2023-01-21T10:22:17.514Z,12.13
2023-01-21T10:24:52.659Z,10.68
2023-01-21T10:27:22.353Z,12.68
2023-01-21T10:29:54.000Z,13.15
2023-01-21T10:32:27.507Z,10.77
2023-01-21T10:34:57.218Z,12.98
2023-01-21T10:37:41.510Z,12.88
2023-01-21T10:40:18.873Z,8.70
2023-01-21T10:43:19.845Z,11.20
2023-01-21T10:45:58.772Z,10.98
2023-01-21T10:48:38.863Z,9.98
2023-01-21T10:51:30.340Z,11.40
2023-01-21T10:54:07.070Z,12.02
2023-01-21T10:56:45.761Z,10.63
2023-01-21T10:59:19.132Z,12.30
2023-01-21T11:04:23.526Z,9.38
2023-01-21T11:07:01.545Z,10.30
2023-01-21T11:09:41.939Z,11.07
2023-01-21T11:12:14.060Z,11.52
2023-01-21T11:14:40.909Z,10.85
2023-01-21T11:17:07.992Z,8.98
2023-01-21T11:19:34.771Z,10.55
2023-01-21T11:22:01.500Z,9.90
2023-01-21T11:24:29.893Z,11.98
2023-01-21T11:26:59.463Z,10.00
2023-01-21T11:29:26.933Z,8.48
2023-01-21T11:32:03.892Z,9.95
2023-01-21T11:34:31.338Z,9.90
2023-01-21T11:37:03.059Z,10.23
2023-01-21T11:39:35.803Z,9.73
2023-01-21T11:42:17.300Z,8.80
2023-01-21T11:45:06.851Z,11.05
2023-01-21T11:47:48.090Z,11.10
2023-01-21T11:50:35.906Z,11.48
2023-01-21T11:53:12.387Z,9.30
2023-01-21T11:55:49.904Z,9.63
2023-01-21T11:58:18.982Z,9.13
2023-01-21T12:00:48.138Z,9.48
2023-01-21T12:03:26.076Z,8.63
2023-01-21T12:05:54.133Z,10.27
2023-01-21T12:08:31.405Z,11.68
2023-01-21T12:11:04.089Z,9.93
2023-01-21T12:13:46.095Z,9.30
2023-01-21T12:16:22.215Z,8.27
2023-01-21T12:19:03.082Z,8.85
2023-01-21T12:21:40.445Z,8.50
2023-01-21T12:24:31.535Z,9.40
2023-01-21T12:27:04.906Z,8.38
2023-01-21T12:32:31.347Z,8.70
2023-01-21T12:35:13.641Z,8.98
2023-01-21T12:37:49.719Z,8.73
2023-01-21T12:40:34.804Z,9.57
2023-01-21T12:43:08.415Z,8.65
2023-01-21T12:45:53.043Z,9.57
2023-01-21T12:48:37.817Z,8.57
2023-01-21T12:51:18.952Z,9.57
2023-01-21T12:53:55.354Z,9.95
2023-01-21T12:56:53.397Z,9.57
2023-01-21T12:59:46.613Z,10.77
2023-01-21T13:02:38.847Z,10.18
2023-01-21T13:05:18.003Z,9.05
2023-01-21T13:08:09.650Z,10.13
2023-01-21T13:10:40.956Z,9.60
2023-01-21T13:13:45.660Z,9.88
2023-01-21T13:16:13.003Z,10.27
2023-01-21T13:18:43.810Z,10.60
2023-01-21T13:21:31.926Z,9.23
2023-01-21T13:24:22.562Z,9.38
2023-01-21T13:27:20.523Z,10.82
2023-01-21T13:30:19.572Z,8.90
2023-01-21T13:32:54.351Z,8.98
2023-01-21T13:35:26.868Z,9.35
2023-01-21T13:38:23.288Z,10.77
2023-01-21T13:40:53.031Z,11.50
2023-01-21T13:43:54.821Z,8.07
2023-01-21T13:46:42.156Z,10.43
2023-01-21T13:49:08.874Z,11.00
2023-01-21T13:51:50.384Z,12.85
2023-01-21T13:54:38.370Z,12.27
2023-01-21T13:57:32.497Z,12.20
2023-01-21T14:00:12.830Z,9.70
2023-01-21T14:02:52.390Z,10.25
2023-01-21T14:05:19.130Z,9.70
2023-01-21T14:08:06.267Z,9.57
2023-01-21T14:10:43.527Z,11.93
2023-01-21T14:13:51.092Z,9.15
2023-01-21T14:16:52.633Z,11.80
2023-01-21T14:19:33.985Z,9.98
2023-01-21T14:22:45.663Z,9.45
2023-01-21T14:25:18.533Z,10.75
2023-01-21T14:28:07.189Z,10.98
2023-01-21T14:31:13.380Z,10.95
2023-01-21T14:34:17.845Z,10.27
2023-01-21T14:37:08.871Z,11.50
2023-01-21T14:39:41.758Z,10.93
2023-01-21T14:42:14.844Z,11.07
2023-01-21T14:44:53.715Z,10.00
2023-01-21T14:47:29.585Z,12.38
2023-01-21T14:49:58.281Z,11.60
2023-01-21T14:52:43.823Z,10.77
2023-01-21T14:55:37.107Z,11.48
2023-01-21T14:58:04.092Z,11.50
2023-01-21T15:00:37.867Z,9.63
2023-01-21T15:03:16.681Z,11.85
2023-01-21T15:05:51.831Z,11.23
2023-01-21T15:08:21.289Z,11.18
2023-01-21T15:11:02.327Z,9.38
2023-01-21T15:13:35.594Z,10.32
2023-01-21T15:16:24.007Z,11.05
2023-01-21T15:19:21.035Z,10.38
2023-01-21T15:21:59.934Z,11.00
2023-01-21T15:24:31.659Z,11.88
2023-01-21T15:27:19.662Z,13.88
2023-01-21T15:29:46.362Z,10.18
2023-01-21T15:32:23.006Z,10.07
2023-01-21T15:34:54.322Z,11.38
2023-01-21T15:37:23.527Z,11.73
2023-01-21T15:39:54.114Z,10.85
2023-01-21T15:42:34.855Z,9.77
2023-01-21T15:45:30.348Z,12.07
2023-01-21T15:48:12.391Z,13.57
2023-01-21T15:50:51.187Z,11.45
2023-01-21T15:53:34.313Z,13.30
2023-01-21T15:56:19.651Z,11.90
2023-01-21T15:59:01.131Z,11.32
2023-01-21T16:01:38.903Z,9.50
2023-01-21T16:04:35.480Z,10.45
2023-01-21T16:07:02.200Z,13.38
2023-01-21T16:10:10.559Z,11.23
2023-01-21T16:12:55.314Z,10.02
2023-01-21T16:15:35.796Z,9.68
2023-01-21T16:18:32.923Z,10.75
2023-01-21T16:21:03.128Z,12.25
2023-01-21T16:23:35.538Z,13.63
2023-01-21T16:26:03.033Z,13.13
2023-01-21T16:28:44.240Z,11.57
2023-01-21T16:31:11.292Z,12.02
2023-01-21T16:33:38.237Z,12.30
2023-01-21T16:36:09.452Z,11.23
2023-01-21T16:38:37.725Z,12.82
2023-01-21T16:41:07.428Z,13.88
2023-01-21T16:43:59.207Z,10.70
2023-01-21T16:46:34.736Z,11.88
2023-01-21T16:49:04.804Z,10.82
2023-01-21T16:51:37.093Z,11.57
2023-01-21T16:54:46.625Z,12.65
2023-01-21T16:57:15.974Z,11.00
2023-01-21T16:59:45.695Z,13.80
2023-01-21T17:02:31.912Z,11.75
2023-01-21T17:05:04.723Z,12.48
2023-01-21T17:07:43.095Z,12.65
2023-01-21T17:10:19.351Z,11.30
2023-01-21T17:12:59.299Z,12.27
2023-01-21T17:15:38.536Z,11.65
2023-01-21T17:18:10.221Z,13.25
2023-01-21T17:20:42.182Z,14.82
2023-01-21T17:23:25.829Z,11.68
2023-01-21T17:28:57.792Z,11.38
2023-01-21T17:34:15.453Z,12.02
2023-01-21T17:36:44.167Z,12.18
2023-01-21T17:39:12.009Z,12.65
2023-01-21T17:41:45.446Z,11.50
2023-01-21T17:44:24.487Z,12.07
2023-01-21T17:46:54.210Z,11.93
2023-01-21T17:49:24.193Z,14.27
2023-01-21T17:51:53.282Z,10.25
2023-01-21T17:54:29.900Z,13.98
2023-01-21T17:56:58.597Z,13.30
2023-01-21T17:59:26.517Z,14.27
2023-01-21T18:01:53.626Z,11.75
2023-01-21T18:04:20.749Z,11.93
2023-01-21T18:06:47.690Z,12.88
2023-01-21T18:09:19.698Z,13.23
2023-01-21T18:11:47.837Z,12.60
2023-01-21T18:14:18.090Z,15.93
2023-01-21T18:16:46.086Z,11.75
2023-01-21T18:19:28.737Z,14.30
2023-01-21T18:21:56.023Z,12.15
2023-01-21T18:24:23.068Z,15.52
2023-01-21T18:26:49.989Z,13.10
2023-01-21T18:29:18.297Z,13.02
2023-01-21T18:31:46.004Z,12.02
2023-01-21T18:34:12.922Z,14.52
2023-01-21T18:36:41.342Z,14.23
2023-01-21T18:39:17.087Z,14.93
2023-01-21T18:41:44.423Z,11.98
2023-01-21T18:44:11.203Z,14.02
2023-01-21T18:46:43.379Z,14.32
2023-01-21T18:49:17.976Z,13.13
2023-01-21T18:51:45.545Z,14.82
2023-01-21T18:54:14.633Z,13.15
2023-01-21T18:56:44.461Z,14.02
2023-01-21T18:59:19.227Z,14.77
2023-01-21T19:01:46.518Z,14.60
2023-01-21T19:04:15.981Z,15.05
2023-01-21T19:06:43.851Z,13.68
2023-01-21T19:09:24.678Z,13.00
2023-01-21T19:11:52.039Z,19.00
2023-01-21T19:14:18.888Z,12.40
2023-01-21T19:16:46.397Z,21.48
2023-01-21T19:19:15.933Z,17.98
2023-01-21T19:21:43.160Z,15.45
2023-01-21T19:24:12.036Z,16.95
2023-01-21T19:26:39.277Z,14.30
2023-01-21T19:29:13.417Z,16.75
2023-01-21T19:31:40.337Z,16.77
2023-01-21T19:34:08.401Z,13.85
2023-01-21T19:36:35.232Z,16.30
2023-01-21T19:39:01.999Z,15.75
2023-01-21T19:41:28.674Z,15.02
2023-01-21T19:43:56.386Z,17.40
2023-01-21T19:46:23.993Z,15.10
2023-01-21T19:48:53.531Z,15.13
2023-01-21T19:51:20.419Z,16.50
2023-01-21T19:53:49.800Z,16.30
2023-01-21T19:56:24.276Z,17.13
2023-01-21T19:58:51.731Z,16.98
2023-01-21T20:01:18.577Z,17.73
2023-01-21T20:03:58.681Z,16.10
2023-01-21T20:06:27.629Z,17.25
2023-01-21T20:08:54.467Z,18.83
2023-01-21T20:11:22.055Z,19.55
2023-01-21T20:13:48.946Z,18.00
2023-01-21T20:16:18.028Z,17.40
2023-01-21T20:18:46.249Z,18.70
2023-01-21T20:21:13.259Z,16.95
2023-01-21T20:23:40.583Z,18.75
2023-01-21T20:26:12.521Z,20.52
2023-01-21T20:28:44.398Z,20.33
2023-01-21T20:31:12.633Z,18.15
2023-01-21T20:33:39.549Z,20.33
2023-01-21T20:36:13.401Z,18.42
2023-01-21T20:38:42.164Z,17.98
2023-01-21T20:41:09.720Z,16.98
2023-01-21T20:43:36.410Z,16.73
2023-01-21T20:46:07.307Z,18.20
2023-01-21T20:48:40.572Z,20.20
2023-01-21T20:53:34.610Z,15.90
2023-01-21T20:56:23.246Z,18.30
2023-01-21T20:58:50.441Z,16.30
2023-01-21T21:01:20.200Z,16.08
2023-01-21T21:03:48.101Z,19.00
2023-01-21T21:06:19.227Z,17.23
2023-01-21T21:08:47.143Z,16.77
2023-01-21T21:11:18.139Z,18.15
2023-01-21T21:13:48.299Z,17.08
2023-01-21T21:16:21.065Z,16.95
2023-01-21T21:18:48.468Z,15.02
2023-01-21T21:21:16.111Z,17.33
2023-01-21T21:23:46.637Z,16.48
2023-01-21T21:26:24.125Z,17.25
2023-01-21T21:28:54.751Z,17.48
2023-01-21T21:31:22.346Z,16.45
2023-01-21T21:33:49.173Z,29.98
2023-01-21T21:36:21.100Z,16.85
2023-01-21T21:38:49.069Z,21.45
2023-01-21T21:41:44.289Z,26.45
2023-01-21T21:44:11.769Z,17.75
2023-01-21T21:46:59.056Z,17.58
2023-01-21T21:49:26.456Z,15.43
2023-01-21T21:51:53.508Z,19.13
2023-01-21T21:54:23.782Z,17.42
2023-01-21T21:56:50.704Z,19.40
2023-01-21T21:59:17.836Z,18.98
2023-01-21T22:01:45.084Z,17.35
2023-01-21T22:04:12.018Z,19.73
2023-01-21T22:06:38.879Z,17.30
2023-01-21T22:09:06.252Z,20.70
2023-01-21T22:11:33.130Z,21.23
2023-01-21T22:14:04.098Z,17.15
2023-01-21T22:16:33.258Z,19.40
2023-01-21T22:19:00.929Z,20.35
2023-01-21T22:21:31.972Z,18.88
2023-01-21T22:24:00.851Z,20.67
2023-01-21T22:26:29.931Z,20.13
2023-01-21T22:28:57.066Z,18.35
2023-01-21T22:31:29.849Z,18.77
2023-01-21T22:33:58.267Z,19.45
2023-01-21T22:36:27.700Z,18.75
2023-01-21T22:38:54.453Z,17.05
2023-01-21T22:41:23.104Z,17.73
2023-01-21T22:43:50.741Z,17.10
2023-01-21T22:46:23.449Z,21.63
2023-01-21T22:48:50.716Z,19.27
2023-01-21T22:51:19.336Z,17.15
2023-01-21T22:53:46.396Z,18.38
2023-01-21T22:56:17.570Z,17.00
2023-01-21T22:58:46.932Z,15.65
2023-01-21T23:01:29.328Z,14.35
2023-01-21T23:03:56.124Z,17.80
2023-01-21T23:06:22.868Z,14.57
2023-01-21T23:08:50.248Z,14.32
2023-01-21T23:11:18.745Z,16.23
2023-01-21T23:13:46.696Z,14.10
2023-01-21T23:16:19.074Z,13.52
2023-01-21T23:18:46.121Z,14.93
2023-01-21T23:21:20.194Z,13.90
2023-01-21T23:23:47.420Z,15.05
2023-01-21T23:26:14.507Z,15.35
2023-01-21T23:28:41.696Z,13.38
2023-01-21T23:31:12.965Z,14.18
2023-01-21T23:33:41.816Z,15.32
2023-01-21T23:36:11.182Z,15.20
2023-01-21T23:38:37.942Z,23.02
2023-01-21T23:41:08.986Z,19.05
2023-01-21T23:43:38.902Z,22.08
2023-01-21T23:46:08.302Z,15.25
2023-01-21T23:48:35.063Z,15.65
2023-01-21T23:51:06.138Z,15.18
2023-01-21T23:53:35.634Z,15.52
2023-01-21T23:56:06.547Z,16.95
2023-01-21T23:58:36.003Z,17.35
